createdAt,value
2022-12-28T00:00:17.144Z,67.90
2022-12-28T00:02:46.298Z,67.80
2022-12-28T00:05:17.804Z,67.80
2022-12-28T00:07:46.806Z,67.70
2022-12-28T00:10:17.560Z,67.60
2022-12-28T00:13:06.616Z,67.60
2022-12-28T00:15:37.879Z,67.60
2022-12-28T00:18:07.061Z,67.70
2022-12-28T00:20:36.513Z,67.40
2022-12-28T00:23:07.194Z,67.30
2022-12-28T00:25:37.767Z,67.30
2022-12-28T00:28:06.946Z,67.20
2022-12-28T00:30:35.815Z,67.30
2022-12-28T00:33:05.137Z,67.30
2022-12-28T00:35:34.116Z,67.40
2022-12-28T00:38:03.511Z,67.60
2022-12-28T00:40:32.576Z,67.70
2022-12-28T00:43:03.189Z,67.70
2022-12-28T00:45:32.723Z,67.90
2022-12-28T00:48:02.953Z,67.80
2022-12-28T00:50:33.449Z,68.00
2022-12-28T00:53:02.441Z,67.80
2022-12-28T00:55:31.498Z,67.80
2022-12-28T00:58:02.130Z,67.80
2022-12-28T01:00:32.117Z,67.60
2022-12-28T01:03:01.111Z,67.70
2022-12-28T01:05:30.217Z,67.60
2022-12-28T01:07:59.245Z,67.50
2022-12-28T01:10:28.274Z,67.50
2022-12-28T01:12:59.307Z,67.50
2022-12-28T01:15:29.818Z,67.50
2022-12-28T01:17:58.893Z,67.50
2022-12-28T01:20:29.171Z,67.50
2022-12-28T01:22:58.337Z,67.30
2022-12-28T01:25:33.194Z,67.40
2022-12-28T01:28:02.274Z,67.40
2022-12-28T01:30:32.603Z,67.70
2022-12-28T01:33:01.510Z,67.80
2022-12-28T01:35:30.488Z,68.00
2022-12-28T01:37:59.321Z,68.90
2022-12-28T01:40:28.292Z,68.10
2022-12-28T01:42:57.855Z,68.20
2022-12-28T01:45:28.720Z,68.30
2022-12-28T01:47:59.751Z,68.30
2022-12-28T01:50:30.526Z,68.10
2022-12-28T01:53:05.367Z,68.40
2022-12-28T01:55:36.411Z,68.30
2022-12-28T01:58:10.679Z,68.20
2022-12-28T02:00:40.876Z,68.10
2022-12-28T02:03:15.000Z,68.00
2022-12-28T02:05:48.300Z,68.00
2022-12-28T02:08:21.296Z,68.30
2022-12-28T02:10:52.536Z,68.40
2022-12-28T02:13:23.249Z,68.60
2022-12-28T02:15:52.483Z,68.60
2022-12-28T02:18:25.279Z,68.40
2022-12-28T02:21:22.022Z,68.50
2022-12-28T02:24:26.644Z,68.50
2022-12-28T02:27:01.352Z,68.50
2022-12-28T02:29:56.787Z,68.50
2022-12-28T02:32:41.682Z,68.40
2022-12-28T02:35:18.616Z,68.30
2022-12-28T02:37:49.782Z,68.40
2022-12-28T02:40:23.724Z,68.30
2022-12-28T02:42:54.384Z,68.10
2022-12-28T02:45:54.078Z,68.10
2022-12-28T02:48:41.170Z,68.10
2022-12-28T02:51:21.389Z,68.10
2022-12-28T02:54:34.347Z,68.10
2022-12-28T02:57:12.190Z,68.10
2022-12-28T02:59:53.474Z,68.30
2022-12-28T03:02:42.373Z,68.30
2022-12-28T03:05:39.966Z,68.30
2022-12-28T03:08:20.292Z,68.30
2022-12-28T03:10:57.034Z,68.40
2022-12-28T03:13:45.265Z,68.40
2022-12-28T03:16:23.195Z,68.40
2022-12-28T03:19:16.444Z,68.40
2022-12-28T03:22:05.188Z,68.60
2022-12-28T03:24:54.763Z,68.80
2022-12-28T03:27:48.133Z,68.90
2022-12-28T03:30:39.681Z,68.80
2022-12-28T03:33:12.442Z,68.90
2022-12-28T03:35:49.408Z,68.80
2022-12-28T03:38:28.094Z,69.60
2022-12-28T03:41:06.806Z,68.80
2022-12-28T03:43:48.257Z,68.90
2022-12-28T03:46:23.661Z,68.70
2022-12-28T03:48:54.018Z,68.70
2022-12-28T03:51:26.304Z,68.80
2022-12-28T03:53:56.928Z,69.00
2022-12-28T03:56:27.984Z,68.90
2022-12-28T03:58:59.398Z,68.70
2022-12-28T04:01:36.848Z,68.40
2022-12-28T04:04:05.859Z,68.20
2022-12-28T04:06:36.993Z,68.40
2022-12-28T04:09:07.009Z,68.40
2022-12-28T04:11:40.221Z,68.50
2022-12-28T04:14:11.808Z,68.60
2022-12-28T04:16:44.528Z,68.60
2022-12-28T04:19:17.128Z,68.80
2022-12-28T04:21:47.836Z,68.90
2022-12-28T04:24:16.704Z,69.00
2022-12-28T04:26:45.601Z,69.10
2022-12-28T04:29:15.658Z,69.10
2022-12-28T04:31:57.878Z,69.40
2022-12-28T04:34:27.569Z,69.30
2022-12-28T04:37:11.081Z,69.30
2022-12-28T04:39:54.232Z,69.30
2022-12-28T04:42:25.791Z,69.10
2022-12-28T04:44:54.764Z,68.90
2022-12-28T04:47:23.593Z,68.90
2022-12-28T04:49:52.565Z,68.70
2022-12-28T04:52:22.999Z,68.70
2022-12-28T04:54:51.969Z,68.80
2022-12-28T04:57:20.906Z,68.80
2022-12-28T04:59:49.922Z,68.80
2022-12-28T05:02:18.955Z,68.70
2022-12-28T05:04:48.012Z,68.70
2022-12-28T05:07:16.913Z,68.80
2022-12-28T05:09:47.100Z,68.90
2022-12-28T05:12:16.168Z,68.90
2022-12-28T05:14:45.094Z,69.10
2022-12-28T05:17:14.776Z,69.10
2022-12-28T05:19:43.860Z,69.10
2022-12-28T05:22:12.845Z,69.10
2022-12-28T05:24:42.449Z,69.20
2022-12-28T05:27:13.030Z,69.30
2022-12-28T05:29:42.062Z,69.40
2022-12-28T05:32:11.014Z,69.40
2022-12-28T05:34:42.277Z,69.20
2022-12-28T05:37:14.370Z,69.40
2022-12-28T05:39:46.107Z,69.40
2022-12-28T05:42:16.605Z,69.50
2022-12-28T05:44:45.581Z,69.60
2022-12-28T05:47:14.765Z,69.60
2022-12-28T05:49:43.904Z,69.70
2022-12-28T05:52:12.943Z,69.70
2022-12-28T05:54:41.971Z,69.70
2022-12-28T05:57:11.029Z,69.70
2022-12-28T05:59:41.762Z,69.70
2022-12-28T06:02:10.792Z,69.70
2022-12-28T06:04:39.792Z,69.90
2022-12-28T06:07:09.347Z,69.90
2022-12-28T06:09:38.351Z,70.20
2022-12-28T06:12:07.729Z,70.10
2022-12-28T06:14:36.665Z,70.10
2022-12-28T06:17:07.446Z,70.00
2022-12-28T06:19:36.475Z,70.20
2022-12-28T06:22:05.773Z,69.90
2022-12-28T06:24:35.325Z,69.90
2022-12-28T06:27:04.469Z,69.70
2022-12-28T06:29:33.312Z,70.00
2022-12-28T06:32:02.478Z,70.00
2022-12-28T06:34:32.574Z,69.70
2022-12-28T06:37:01.802Z,69.60
2022-12-28T06:39:30.760Z,69.70
2022-12-28T06:41:59.589Z,69.70
2022-12-28T06:44:28.476Z,69.80
2022-12-28T06:46:57.544Z,69.60
2022-12-28T06:49:26.514Z,69.70
2022-12-28T06:51:56.901Z,69.70
2022-12-28T06:54:25.963Z,69.90
2022-12-28T06:56:55.048Z,69.70
2022-12-28T06:59:24.111Z,69.30
2022-12-28T07:01:53.306Z,69.30
2022-12-28T07:04:22.636Z,69.20
2022-12-28T07:06:51.369Z,69.20
2022-12-28T07:09:21.785Z,69.50
2022-12-28T07:11:51.919Z,69.50
2022-12-28T07:14:20.878Z,69.40
2022-12-28T07:16:50.036Z,69.20
2022-12-28T07:19:19.004Z,69.20
2022-12-28T07:21:50.176Z,69.20
2022-12-28T07:24:19.168Z,69.10
2022-12-28T07:26:49.603Z,69.10
2022-12-28T07:29:18.739Z,69.30
2022-12-28T07:31:48.045Z,69.30
2022-12-28T07:34:17.019Z,69.40
2022-12-28T07:36:46.020Z,69.50
2022-12-28T07:39:14.983Z,70.00
2022-12-28T07:41:44.948Z,69.60
2022-12-28T07:44:15.256Z,69.70
2022-12-28T07:46:44.278Z,69.50
2022-12-28T07:49:13.140Z,69.40
2022-12-28T07:51:42.216Z,69.40
2022-12-28T07:54:11.448Z,69.40
2022-12-28T07:59:08.488Z,69.70
2022-12-28T08:01:38.847Z,69.70
2022-12-28T08:04:10.257Z,69.60
2022-12-28T08:06:42.058Z,70.00
2022-12-28T08:09:13.007Z,70.10
2022-12-28T08:11:43.916Z,69.90
2022-12-28T08:14:15.907Z,70.00
2022-12-28T08:16:46.254Z,69.70
2022-12-28T08:19:15.115Z,69.50
2022-12-28T08:21:46.596Z,69.40
2022-12-28T08:24:17.704Z,69.60
2022-12-28T08:26:48.582Z,69.60
2022-12-28T08:29:20.022Z,69.40
2022-12-28T08:31:51.238Z,69.40
2022-12-28T08:34:26.359Z,69.30
2022-12-28T08:36:55.855Z,69.30
2022-12-28T08:39:24.818Z,69.30
2022-12-28T08:41:53.846Z,69.20
2022-12-28T08:44:22.873Z,70.10
2022-12-28T08:46:55.731Z,69.30
2022-12-28T08:49:24.725Z,69.50
2022-12-28T08:51:53.638Z,69.40
2022-12-28T08:54:22.778Z,69.20
2022-12-28T08:56:51.625Z,69.20
2022-12-28T08:59:21.039Z,69.40
2022-12-28T09:01:50.119Z,69.30
2022-12-28T09:04:22.078Z,69.30
2022-12-28T09:06:51.536Z,69.30
2022-12-28T09:09:21.901Z,69.20
2022-12-28T09:11:51.733Z,69.10
2022-12-28T09:14:24.036Z,69.00
2022-12-28T09:16:54.517Z,68.90
2022-12-28T09:19:25.358Z,69.00
2022-12-28T09:21:55.301Z,69.00
2022-12-28T09:24:24.566Z,68.90
2022-12-28T09:26:55.501Z,68.80
2022-12-28T09:29:24.825Z,68.60
2022-12-28T09:31:54.801Z,68.50
2022-12-28T09:34:36.072Z,68.40
2022-12-28T09:37:07.790Z,68.40
2022-12-28T09:39:36.793Z,68.20
2022-12-28T09:42:10.119Z,68.30
2022-12-28T09:44:56.172Z,68.40
2022-12-28T09:47:32.299Z,68.10
2022-12-28T09:50:18.908Z,68.10
2022-12-28T09:53:01.065Z,68.20
2022-12-28T09:55:32.665Z,68.00
2022-12-28T09:58:02.154Z,68.20
2022-12-28T10:00:38.808Z,68.00
2022-12-28T10:03:16.675Z,67.90
2022-12-28T10:05:47.584Z,67.90
2022-12-28T10:08:19.467Z,67.90
2022-12-28T10:10:49.860Z,67.60
2022-12-28T10:13:53.115Z,67.30
2022-12-28T10:16:18.581Z,67.10
2022-12-28T10:18:48.705Z,66.80
2022-12-28T10:21:26.869Z,67.00
2022-12-28T10:24:30.182Z,67.00
2022-12-28T10:26:51.422Z,67.00
2022-12-28T10:29:22.286Z,67.00
2022-12-28T10:32:00.896Z,67.00
2022-12-28T10:34:35.274Z,66.70
2022-12-28T10:37:15.818Z,66.60
2022-12-28T10:39:51.815Z,66.70
2022-12-28T10:42:25.176Z,66.40
2022-12-28T10:44:55.122Z,66.80
2022-12-28T10:47:31.318Z,66.90
2022-12-28T10:50:36.218Z,66.80
2022-12-28T10:52:58.940Z,66.20
2022-12-28T10:55:29.916Z,65.10
2022-12-28T10:58:33.509Z,64.90
2022-12-28T11:01:07.796Z,64.80
2022-12-28T11:03:38.822Z,65.00
2022-12-28T11:06:13.394Z,63.60
2022-12-28T11:08:46.451Z,63.50
2022-12-28T11:11:21.085Z,63.50
2022-12-28T11:13:54.795Z,60.80
2022-12-28T11:16:23.850Z,59.60
2022-12-28T11:18:54.032Z,59.60
2022-12-28T11:21:23.942Z,59.20
2022-12-28T11:23:54.368Z,58.30
2022-12-28T11:26:23.851Z,58.50
2022-12-28T11:28:53.863Z,59.40
2022-12-28T11:31:27.098Z,59.10
2022-12-28T11:33:59.667Z,58.50
2022-12-28T11:36:29.162Z,58.20
2022-12-28T11:39:00.542Z,56.90
2022-12-28T11:42:02.804Z,56.20
2022-12-28T11:44:53.143Z,55.40
2022-12-28T11:47:33.017Z,54.70
2022-12-28T11:50:42.269Z,54.00
2022-12-28T11:53:49.737Z,52.80
2022-12-28T11:56:21.390Z,50.80
2022-12-28T11:59:06.386Z,50.70
2022-12-28T12:01:50.141Z,50.50
2022-12-28T12:04:46.322Z,49.50
2022-12-28T12:07:29.035Z,49.90
2022-12-28T12:10:34.976Z,49.00
2022-12-28T12:13:39.995Z,48.90
2022-12-28T12:16:21.402Z,47.70
2022-12-28T12:18:54.171Z,47.20
2022-12-28T12:21:33.790Z,47.00
2022-12-28T12:24:12.017Z,46.30
2022-12-28T12:26:46.320Z,46.80
2022-12-28T12:29:20.760Z,47.20
2022-12-28T12:31:56.414Z,47.70
2022-12-28T12:34:30.723Z,47.80
2022-12-28T12:37:29.390Z,48.30
2022-12-28T12:40:16.916Z,47.80
2022-12-28T12:43:01.892Z,47.60
2022-12-28T12:45:44.215Z,47.80
2022-12-28T12:48:36.604Z,47.80
2022-12-28T12:51:23.212Z,48.40
2022-12-28T12:54:04.014Z,48.90
2022-12-28T12:56:48.189Z,49.30
2022-12-28T12:59:31.626Z,49.70
2022-12-28T13:02:22.184Z,50.20
2022-12-28T13:04:51.648Z,50.80
2022-12-28T13:07:23.367Z,51.30
2022-12-28T13:09:54.746Z,51.50
2022-12-28T13:12:25.274Z,51.80
2022-12-28T13:14:58.553Z,52.30
2022-12-28T13:17:30.879Z,52.70
2022-12-28T13:20:23.731Z,52.80
2022-12-28T13:22:52.965Z,53.10
2022-12-28T13:25:27.386Z,53.30
2022-12-28T13:27:58.338Z,53.70
2022-12-28T13:30:27.487Z,53.70
2022-12-28T13:32:59.186Z,53.80
2022-12-28T13:35:33.264Z,54.20
2022-12-28T13:38:03.951Z,54.50
2022-12-28T13:40:40.619Z,54.60
2022-12-28T13:44:08.642Z,54.70
2022-12-28T13:46:41.706Z,55.10
2022-12-28T13:49:13.643Z,55.20
2022-12-28T13:51:47.139Z,55.90
2022-12-28T13:54:19.500Z,55.50
2022-12-28T13:56:48.681Z,55.60
2022-12-28T13:59:20.858Z,55.80
2022-12-28T14:01:51.882Z,56.10
2022-12-28T14:04:51.716Z,56.10
2022-12-28T14:07:18.858Z,56.30
2022-12-28T14:09:48.720Z,56.50
2022-12-28T14:12:19.486Z,56.50
2022-12-28T14:14:50.509Z,56.70
2022-12-28T14:17:21.480Z,56.60
2022-12-28T14:19:55.783Z,56.70
2022-12-28T14:22:27.588Z,56.70
2022-12-28T14:25:02.298Z,56.80
2022-12-28T14:27:36.268Z,57.00
2022-12-28T14:30:08.316Z,57.00
2022-12-28T14:32:42.921Z,57.00
2022-12-28T14:35:21.438Z,56.90
2022-12-28T14:37:53.798Z,57.10
2022-12-28T14:40:29.156Z,57.10
2022-12-28T14:43:01.251Z,57.20
2022-12-28T14:46:07.614Z,57.10
2022-12-28T14:48:36.256Z,57.20
2022-12-28T14:51:25.962Z,57.30
2022-12-28T14:54:18.448Z,57.40
2022-12-28T14:56:53.315Z,57.60
2022-12-28T14:59:27.991Z,57.40
2022-12-28T15:01:57.418Z,57.50
2022-12-28T15:04:29.641Z,57.50
2022-12-28T15:07:00.340Z,58.00
2022-12-28T15:09:29.250Z,57.80
2022-12-28T15:12:10.405Z,57.80
2022-12-28T15:14:39.697Z,58.10
2022-12-28T15:17:11.418Z,58.10
2022-12-28T15:19:40.440Z,58.20
2022-12-28T15:22:10.885Z,58.20
2022-12-28T15:24:41.621Z,58.40
2022-12-28T15:27:10.993Z,58.40
2022-12-28T15:30:04.437Z,58.40
2022-12-28T15:32:29.994Z,58.30
2022-12-28T15:34:59.142Z,58.50
2022-12-28T15:37:29.397Z,58.60
2022-12-28T15:39:58.372Z,58.60
2022-12-28T15:42:27.910Z,58.60
2022-12-28T15:44:57.363Z,58.80
2022-12-28T15:47:26.242Z,58.80
2022-12-28T15:49:55.231Z,58.70
2022-12-28T15:52:24.511Z,58.80
2022-12-28T15:54:55.442Z,58.80
2022-12-28T15:57:24.747Z,58.80
2022-12-28T15:59:54.735Z,58.80
2022-12-28T16:02:24.516Z,58.80
2022-12-28T16:04:53.940Z,58.90
2022-12-28T16:07:22.934Z,59.00
2022-12-28T16:09:51.758Z,59.00
2022-12-28T16:12:22.115Z,59.10
2022-12-28T16:14:51.243Z,59.10
2022-12-28T16:17:20.202Z,59.10
2022-12-28T16:19:49.321Z,59.10
2022-12-28T16:22:18.434Z,59.20
2022-12-28T16:24:48.622Z,59.20
2022-12-28T16:27:17.784Z,59.30
2022-12-28T16:29:52.709Z,59.40
2022-12-28T16:32:24.575Z,59.60
2022-12-28T16:34:55.362Z,59.60
2022-12-28T16:37:27.406Z,59.70
2022-12-28T16:39:56.622Z,59.70
2022-12-28T16:42:25.912Z,59.70
2022-12-28T16:44:56.533Z,59.70
2022-12-28T16:47:25.686Z,59.70
2022-12-28T16:49:54.767Z,59.70
2022-12-28T16:52:23.943Z,59.70
2022-12-28T16:54:53.026Z,59.70
2022-12-28T16:57:27.557Z,59.80
2022-12-28T17:00:01.976Z,59.70
2022-12-28T17:02:31.271Z,59.80
2022-12-28T17:05:00.455Z,59.80
2022-12-28T17:07:29.528Z,59.90
2022-12-28T17:09:58.382Z,59.90
2022-12-28T17:12:27.748Z,59.90
2022-12-28T17:15:00.565Z,60.00
2022-12-28T17:17:34.475Z,59.90
2022-12-28T17:20:03.564Z,60.80
2022-12-28T17:22:33.340Z,60.10
2022-12-28T17:25:02.623Z,60.10
2022-12-28T17:27:31.838Z,60.30
2022-12-28T17:30:00.973Z,60.40
2022-12-28T17:32:30.159Z,60.30
2022-12-28T17:35:00.531Z,60.40
2022-12-28T17:37:29.581Z,60.40
2022-12-28T17:39:58.873Z,60.30
2022-12-28T17:42:27.929Z,60.30
2022-12-28T17:44:56.969Z,60.40
2022-12-28T17:47:26.548Z,60.40
2022-12-28T17:49:55.714Z,60.40
2022-12-28T17:52:26.240Z,60.50
2022-12-28T17:54:55.227Z,60.70
2022-12-28T17:57:24.247Z,60.60
2022-12-28T17:59:53.579Z,60.80
2022-12-28T18:02:22.886Z,60.90
2022-12-28T18:04:52.001Z,61.00
2022-12-28T18:07:20.948Z,61.10
2022-12-28T18:09:51.295Z,61.10
2022-12-28T18:12:20.369Z,61.30
2022-12-28T18:14:49.318Z,61.10
2022-12-28T18:17:23.317Z,61.30
2022-12-28T18:19:55.851Z,61.40
2022-12-28T18:22:27.457Z,61.30
2022-12-28T18:24:58.151Z,61.60
2022-12-28T18:27:27.365Z,61.40
2022-12-28T18:29:56.402Z,61.70
2022-12-28T18:32:25.526Z,61.70
2022-12-28T18:34:54.864Z,61.70
2022-12-28T18:37:23.829Z,61.60
2022-12-28T18:39:53.603Z,61.40
2022-12-28T18:42:25.839Z,61.50
2022-12-28T18:44:55.377Z,61.50
2022-12-28T18:47:24.635Z,61.70
2022-12-28T18:49:53.930Z,61.60
2022-12-28T18:52:26.205Z,61.60
2022-12-28T18:54:58.851Z,61.70
2022-12-28T18:57:29.934Z,61.80
2022-12-28T18:59:59.039Z,61.80
2022-12-28T19:02:28.670Z,62.00
2022-12-28T19:04:57.795Z,61.90
2022-12-28T19:07:27.158Z,62.00
2022-12-28T19:10:13.395Z,62.10
2022-12-28T19:12:45.115Z,61.90
2022-12-28T19:15:16.138Z,62.10
2022-12-28T19:17:45.586Z,62.20
2022-12-28T19:20:15.036Z,62.20
2022-12-28T19:22:44.158Z,62.10
2022-12-28T19:25:13.305Z,62.10
2022-12-28T19:27:44.827Z,62.20
2022-12-28T19:30:14.604Z,62.00
2022-12-28T19:32:43.849Z,61.90
2022-12-28T19:35:13.403Z,61.90
2022-12-28T19:37:42.906Z,61.80
2022-12-28T19:40:13.406Z,61.90
2022-12-28T19:42:44.557Z,61.80
2022-12-28T19:45:13.990Z,62.20
2022-12-28T19:47:43.469Z,62.10
2022-12-28T19:50:12.524Z,62.20
2022-12-28T19:52:41.826Z,62.20
2022-12-28T19:55:11.609Z,62.30
2022-12-28T19:57:40.771Z,62.30
2022-12-28T20:00:12.880Z,62.80
2022-12-28T20:02:42.617Z,62.80
2022-12-28T20:05:12.190Z,62.60
2022-12-28T20:07:41.596Z,62.60
2022-12-28T20:10:10.931Z,62.70
2022-12-28T20:12:40.117Z,62.80
2022-12-28T20:15:11.625Z,63.00
2022-12-28T20:17:42.181Z,63.00
2022-12-28T20:20:16.746Z,63.10
2022-12-28T20:22:46.117Z,63.10
2022-12-28T20:25:15.184Z,63.20
2022-12-28T20:27:44.508Z,62.90
2022-12-28T20:30:15.635Z,62.60
2022-12-28T20:32:45.258Z,62.30
2022-12-28T20:35:14.566Z,62.20
2022-12-28T20:37:43.836Z,62.10
2022-12-28T20:40:13.375Z,61.90
2022-12-28T20:42:59.848Z,61.70
2022-12-28T20:45:34.477Z,61.50
2022-12-28T20:48:03.494Z,61.40
2022-12-28T20:50:32.557Z,61.40
2022-12-28T20:53:01.618Z,61.30
2022-12-28T20:55:30.763Z,61.20
2022-12-28T20:58:00.000Z,61.00
2022-12-28T21:00:30.696Z,60.90
2022-12-28T21:02:59.966Z,60.80
2022-12-28T21:05:29.004Z,60.80
2022-12-28T21:07:57.984Z,60.70
2022-12-28T21:10:27.069Z,60.70
2022-12-28T21:12:58.232Z,60.70
2022-12-28T21:15:27.270Z,60.70
2022-12-28T21:17:59.330Z,60.80
2022-12-28T21:20:31.640Z,61.20
2022-12-28T21:23:04.472Z,61.10
2022-12-28T21:25:34.699Z,61.30
2022-12-28T21:28:03.747Z,61.30
2022-12-28T21:30:32.803Z,61.30
2022-12-28T21:33:03.253Z,61.40
2022-12-28T21:35:34.802Z,61.40
2022-12-28T21:38:06.117Z,61.60
2022-12-28T21:40:36.186Z,61.50
2022-12-28T21:43:09.364Z,61.60
2022-12-28T21:45:38.652Z,61.70
2022-12-28T21:48:09.055Z,61.60
2022-12-28T21:50:38.129Z,61.80
2022-12-28T21:53:07.191Z,61.60
2022-12-28T21:55:45.406Z,61.50
2022-12-28T21:58:14.521Z,61.80
2022-12-28T22:01:16.052Z,61.80
2022-12-28T22:04:04.111Z,62.10
2022-12-28T22:06:33.221Z,61.90
2022-12-28T22:09:20.028Z,61.90
2022-12-28T22:12:06.405Z,61.90
2022-12-28T22:14:35.400Z,61.90
2022-12-28T22:17:08.385Z,61.90
2022-12-28T22:19:41.429Z,61.90
2022-12-28T22:22:10.447Z,62.20
2022-12-28T22:24:39.696Z,62.20
2022-12-28T22:27:08.883Z,62.10
2022-12-28T22:29:38.063Z,62.20
2022-12-28T22:32:07.311Z,62.50
2022-12-28T22:34:36.657Z,62.60
2022-12-28T22:37:07.093Z,63.40
2022-12-28T22:39:36.188Z,62.40
2022-12-28T22:42:05.306Z,62.60
2022-12-28T22:44:34.217Z,62.90
2022-12-28T22:47:03.494Z,62.70
2022-12-28T22:49:32.622Z,62.50
2022-12-28T22:52:01.635Z,62.60
2022-12-28T22:54:32.061Z,62.50
2022-12-28T22:57:01.193Z,62.80
2022-12-28T22:59:30.309Z,62.60
2022-12-28T23:02:01.509Z,62.60
2022-12-28T23:04:31.172Z,62.20
2022-12-28T23:07:03.798Z,62.00
2022-12-28T23:09:36.523Z,62.20
2022-12-28T23:12:06.208Z,62.20
2022-12-28T23:14:53.747Z,62.10
2022-12-28T23:17:23.868Z,62.20
2022-12-28T23:20:10.391Z,62.10
2022-12-28T23:22:56.857Z,62.20
2022-12-28T23:25:45.029Z,62.20
2022-12-28T23:28:16.849Z,62.30
2022-12-28T23:30:48.127Z,62.40
2022-12-28T23:33:17.856Z,62.50
2022-12-28T23:35:47.328Z,62.30
2022-12-28T23:38:16.296Z,62.30
2022-12-28T23:41:06.750Z,62.30
2022-12-28T23:43:35.919Z,62.20
2022-12-28T23:46:05.721Z,62.20
2022-12-28T23:48:35.104Z,62.20
2022-12-28T23:51:08.146Z,62.30
2022-12-28T23:53:37.427Z,62.40
2022-12-28T23:56:14.758Z,62.40
2022-12-28T23:58:43.726Z,62.80
